createdAt,value
2018-04-15T00:00:14.350Z,11.20
2018-04-15T00:02:42.739Z,11.10
2018-04-15T00:05:11.162Z,11.00
2018-04-15T00:07:40.215Z,10.80
2018-04-15T00:10:08.470Z,10.80
2018-04-15T00:12:36.768Z,10.80
2018-04-15T00:15:05.150Z,10.80
2018-04-15T00:17:33.443Z,10.70
2018-04-15T00:20:01.712Z,10.70
2018-04-15T00:22:30.008Z,10.70
2018-04-15T00:24:59.052Z,10.70
2018-04-15T00:27:27.465Z,10.70
2018-04-15T00:29:55.770Z,10.70
2018-04-15T00:32:24.939Z,10.60
2018-04-15T00:34:53.315Z,10.60
2018-04-15T00:37:22.819Z,10.50
2018-04-15T00:39:51.083Z,10.40
2018-04-15T00:42:19.375Z,10.40
2018-04-15T00:44:47.652Z,10.40
2018-04-15T00:47:15.945Z,10.30
2018-04-15T00:49:44.221Z,10.30
2018-04-15T00:52:12.516Z,10.20
2018-04-15T00:54:41.575Z,10.10
2018-04-15T00:57:09.853Z,10.00
2018-04-15T00:59:38.234Z,10.00
2018-04-15T01:02:06.509Z,10.00
2018-04-15T01:04:34.811Z,10.00
2018-04-15T01:07:03.167Z,9.90
2018-04-15T01:09:31.551Z,9.80
2018-04-15T01:11:59.812Z,9.80
2018-04-15T01:14:28.220Z,9.70
2018-04-15T01:16:57.251Z,9.70
2018-04-15T01:19:25.579Z,9.70
2018-04-15T01:21:53.857Z,9.70
2018-04-15T01:24:22.141Z,9.60
2018-04-15T01:26:50.511Z,9.60
2018-04-15T01:29:18.884Z,9.60
2018-04-15T01:31:47.149Z,9.60
2018-04-15T01:34:15.439Z,9.60
2018-04-15T01:36:43.710Z,9.70
2018-04-15T01:39:12.209Z,9.70
2018-04-15T01:41:40.463Z,9.80
2018-04-15T01:44:08.752Z,9.80
2018-04-15T01:46:37.016Z,9.80
2018-04-15T01:49:05.408Z,9.80
2018-04-15T01:51:33.713Z,9.90
2018-04-15T01:54:01.982Z,9.90
2018-04-15T01:56:30.267Z,9.90
2018-04-15T01:58:58.535Z,9.90
2018-04-15T02:01:28.343Z,9.90
2018-04-15T02:03:56.634Z,9.90
2018-04-15T02:06:25.685Z,9.90
2018-04-15T02:08:53.964Z,9.90
2018-04-15T02:11:22.365Z,9.90
2018-04-15T02:13:50.611Z,9.90
2018-04-15T02:16:18.899Z,9.90
2018-04-15T02:18:47.271Z,9.90
2018-04-15T02:21:16.739Z,9.90
2018-04-15T02:23:44.994Z,9.90
2018-04-15T02:26:13.283Z,9.90
2018-04-15T02:28:41.555Z,9.90
2018-04-15T02:31:09.837Z,9.90
2018-04-15T02:33:38.103Z,9.90
2018-04-15T02:36:06.425Z,9.80
2018-04-15T02:38:34.692Z,9.80
2018-04-15T02:41:03.082Z,9.80
2018-04-15T02:43:31.353Z,9.80
2018-04-15T02:45:59.647Z,9.90
2018-04-15T02:48:28.021Z,9.90
2018-04-15T02:50:56.323Z,9.80
2018-04-15T02:53:25.366Z,9.50
2018-04-15T02:55:53.675Z,9.80
2018-04-15T02:58:21.966Z,9.80
2018-04-15T03:00:50.243Z,9.70
2018-04-15T03:03:18.541Z,9.80
2018-04-15T03:05:47.612Z,9.80
2018-04-15T03:08:15.991Z,9.80
2018-04-15T03:10:44.258Z,9.80
2018-04-15T03:13:12.580Z,9.80
2018-04-15T03:15:40.910Z,9.80
2018-04-15T03:18:09.201Z,9.80
2018-04-15T03:20:37.461Z,9.90
2018-04-15T03:23:05.840Z,9.90
2018-04-15T03:25:34.119Z,9.90
2018-04-15T03:28:02.415Z,9.90
2018-04-15T03:30:30.673Z,10.00
2018-04-15T03:32:58.972Z,10.00
2018-04-15T03:35:27.328Z,10.10
2018-04-15T03:37:55.623Z,10.10
2018-04-15T03:40:23.997Z,10.20
2018-04-15T03:42:52.278Z,10.20
2018-04-15T03:45:20.751Z,10.20
2018-04-15T03:47:49.060Z,10.30
2018-04-15T03:50:18.087Z,10.30
2018-04-15T03:52:46.395Z,10.30
2018-04-15T03:55:14.688Z,10.30
2018-04-15T03:57:42.955Z,10.30
2018-04-15T04:00:12.019Z,10.20
2018-04-15T04:02:40.323Z,10.10
2018-04-15T04:05:08.623Z,10.10
2018-04-15T04:07:36.906Z,10.10
2018-04-15T04:10:05.201Z,10.00
2018-04-15T04:12:34.254Z,10.00
2018-04-15T04:15:02.734Z,9.90
2018-04-15T04:17:42.890Z,10.00
2018-04-15T04:20:23.377Z,10.00
2018-04-15T04:23:03.366Z,9.90
2018-04-15T04:25:43.278Z,10.00
2018-04-15T04:28:11.578Z,10.00
2018-04-15T04:30:40.632Z,9.90
2018-04-15T04:33:08.994Z,9.90
2018-04-15T04:35:37.391Z,9.90
2018-04-15T04:38:05.663Z,9.90
2018-04-15T04:40:34.763Z,9.90
2018-04-15T04:43:03.011Z,9.90
2018-04-15T04:45:31.293Z,9.90
2018-04-15T04:47:59.567Z,10.00
2018-04-15T04:50:27.972Z,10.00
2018-04-15T04:52:56.247Z,10.10
2018-04-15T04:55:24.627Z,10.20
2018-04-15T04:57:52.893Z,10.20
2018-04-15T05:00:21.195Z,10.20
2018-04-15T05:02:49.479Z,10.20
2018-04-15T05:05:17.855Z,10.30
2018-04-15T05:07:46.118Z,10.40
2018-04-15T05:10:14.641Z,10.40
2018-04-15T05:12:43.692Z,10.50
2018-04-15T05:15:11.969Z,10.50
2018-04-15T05:17:40.951Z,10.60
2018-04-15T05:20:09.219Z,10.80
2018-04-15T05:22:37.519Z,10.80
2018-04-15T05:25:05.914Z,10.90
2018-04-15T05:27:34.206Z,10.90
2018-04-15T05:30:03.253Z,11.00
2018-04-15T05:32:31.664Z,11.00
2018-04-15T05:35:00.036Z,11.00
2018-04-15T05:37:28.364Z,10.80
2018-04-15T05:39:56.608Z,11.10
2018-04-15T05:42:24.893Z,11.20
2018-04-15T05:44:53.191Z,11.30
2018-04-15T05:47:21.481Z,11.40
2018-04-15T05:49:50.523Z,11.50
2018-04-15T05:52:18.839Z,11.50
2018-04-15T05:54:47.109Z,11.60
2018-04-15T05:57:15.490Z,11.80
2018-04-15T05:59:43.749Z,11.80
2018-04-15T06:02:12.044Z,11.90
2018-04-15T06:04:40.847Z,11.90
2018-04-15T06:07:09.218Z,11.90
2018-04-15T06:09:38.260Z,12.40
2018-04-15T06:12:06.531Z,12.40
2018-04-15T06:14:34.869Z,12.50
2018-04-15T06:17:03.145Z,12.60
2018-04-15T06:19:31.438Z,12.60
2018-04-15T06:21:59.713Z,12.70
2018-04-15T06:24:28.034Z,12.80
2018-04-15T06:26:56.300Z,13.00
2018-04-15T06:29:24.606Z,13.20
2018-04-15T06:31:52.921Z,13.20
2018-04-15T06:34:21.213Z,13.40
2018-04-15T06:36:50.325Z,13.70
2018-04-15T06:39:18.762Z,13.70
2018-04-15T06:41:47.010Z,13.80
2018-04-15T06:44:15.308Z,13.70
2018-04-15T06:46:43.591Z,13.60
2018-04-15T06:49:11.895Z,13.70
2018-04-15T06:51:40.164Z,13.80
2018-04-15T06:54:08.503Z,13.80
2018-04-15T06:56:36.782Z,13.80
2018-04-15T06:59:05.075Z,13.80
2018-04-15T07:01:33.370Z,13.80
2018-04-15T07:04:01.769Z,13.90
2018-04-15T07:06:30.812Z,14.30
2018-04-15T07:08:59.117Z,14.30
2018-04-15T07:11:27.387Z,14.70
2018-04-15T07:13:55.645Z,14.70
2018-04-15T07:16:24.147Z,14.90
2018-04-15T07:18:52.419Z,15.40
2018-04-15T07:21:20.709Z,15.50
2018-04-15T07:23:49.081Z,15.70
2018-04-15T07:26:17.356Z,15.90
2018-04-15T07:28:45.636Z,16.00
2018-04-15T07:31:13.918Z,16.10
2018-04-15T07:33:42.313Z,16.20
2018-04-15T07:36:10.615Z,16.20
2018-04-15T07:38:38.916Z,16.30
2018-04-15T07:41:07.207Z,16.40
2018-04-15T07:43:35.503Z,16.50
2018-04-15T07:46:03.985Z,16.60
2018-04-15T07:48:32.382Z,16.80
2018-04-15T07:51:00.666Z,16.80
2018-04-15T07:53:28.940Z,16.90
2018-04-15T07:55:57.290Z,17.00
2018-04-15T07:58:25.553Z,17.20
2018-04-15T08:00:53.858Z,17.40
2018-04-15T08:03:22.233Z,17.50
2018-04-15T08:05:50.715Z,17.50
2018-04-15T08:08:18.975Z,17.30
2018-04-15T08:10:47.373Z,17.40
2018-04-15T08:13:15.626Z,17.40
2018-04-15T08:15:43.931Z,17.30
2018-04-15T08:18:12.216Z,17.30
2018-04-15T08:20:40.581Z,17.30
2018-04-15T08:23:08.853Z,17.50
2018-04-15T08:25:37.160Z,17.50
2018-04-15T08:28:05.516Z,17.60
2018-04-15T08:30:33.895Z,17.60
2018-04-15T08:33:02.289Z,17.80
2018-04-15T08:35:30.548Z,17.80
2018-04-15T08:37:58.863Z,17.90
2018-04-15T08:40:27.901Z,18.00
2018-04-15T08:42:56.305Z,18.00
2018-04-15T08:45:24.590Z,18.10
2018-04-15T08:47:52.874Z,18.00
2018-04-15T08:50:21.238Z,18.20
2018-04-15T08:52:49.524Z,18.30
2018-04-15T08:55:17.804Z,18.40
2018-04-15T08:57:46.274Z,18.60
2018-04-15T09:00:14.559Z,18.70
2018-04-15T09:02:42.871Z,18.90
2018-04-15T09:05:11.902Z,19.10
2018-04-15T09:07:40.209Z,19.00
2018-04-15T09:10:08.481Z,19.00
2018-04-15T09:12:36.866Z,19.10
2018-04-15T09:15:05.239Z,19.00
2018-04-15T09:17:33.548Z,19.10
2018-04-15T09:20:01.815Z,19.10
2018-04-15T09:22:30.181Z,19.10
2018-04-15T09:24:58.653Z,19.30
2018-04-15T09:27:26.943Z,19.50
2018-04-15T09:29:55.311Z,19.50
2018-04-15T09:32:23.692Z,19.40
2018-04-15T09:34:51.951Z,19.70
2018-04-15T09:37:20.345Z,20.00
2018-04-15T09:39:48.602Z,19.90
2018-04-15T09:42:17.007Z,20.00
2018-04-15T09:44:45.388Z,20.10
2018-04-15T09:47:13.675Z,20.10
2018-04-15T09:49:42.039Z,20.20
2018-04-15T09:52:10.415Z,20.30
2018-04-15T09:54:38.706Z,20.50
2018-04-15T09:57:07.076Z,20.40
2018-04-15T09:59:35.380Z,20.50
2018-04-15T10:02:03.730Z,20.40
2018-04-15T10:04:32.022Z,20.60
2018-04-15T10:07:00.563Z,20.70
2018-04-15T10:09:28.866Z,20.90
2018-04-15T10:11:57.163Z,21.00
2018-04-15T10:14:25.577Z,21.10
2018-04-15T10:16:53.817Z,21.20
2018-04-15T10:19:22.128Z,21.30
2018-04-15T10:21:51.161Z,21.30
2018-04-15T10:24:19.468Z,21.30
2018-04-15T10:26:47.736Z,21.20
2018-04-15T10:29:16.125Z,21.20
2018-04-15T10:31:45.846Z,21.30
2018-04-15T10:34:14.530Z,21.50
2018-04-15T10:36:43.676Z,21.80
2018-04-15T10:39:12.123Z,21.70
2018-04-15T10:41:40.377Z,21.80
2018-04-15T10:44:08.765Z,22.00
2018-04-15T10:46:37.049Z,21.90
2018-04-15T10:49:06.198Z,22.10
2018-04-15T10:51:35.805Z,22.20
2018-04-15T10:54:04.943Z,22.30
2018-04-15T10:56:33.204Z,22.30
2018-04-15T10:59:01.492Z,22.40
2018-04-15T11:01:29.773Z,22.40
2018-04-15T11:03:58.021Z,22.50
2018-04-15T11:06:26.421Z,22.50
2018-04-15T11:08:54.696Z,22.70
2018-04-15T11:11:23.079Z,22.80
2018-04-15T11:13:51.344Z,23.00
2018-04-15T11:16:19.743Z,23.10
2018-04-15T11:18:47.989Z,23.30
2018-04-15T11:21:16.300Z,23.40
2018-04-15T11:23:44.567Z,23.60
2018-04-15T11:26:12.851Z,23.70
2018-04-15T11:28:41.222Z,23.70
2018-04-15T11:31:09.497Z,23.90
2018-04-15T11:33:37.789Z,23.80
2018-04-15T11:36:06.075Z,23.90
2018-04-15T11:38:35.107Z,24.20
2018-04-15T11:41:03.396Z,24.20
2018-04-15T11:43:31.707Z,24.20
2018-04-15T11:46:00.081Z,24.20
2018-04-15T11:48:28.363Z,24.10
2018-04-15T11:50:56.843Z,24.30
2018-04-15T11:53:25.110Z,24.40
2018-04-15T11:55:53.403Z,24.50
2018-04-15T11:58:21.804Z,24.50
2018-04-15T12:00:50.092Z,23.70
2018-04-15T12:03:19.119Z,24.00
2018-04-15T12:05:47.412Z,23.90
2018-04-15T12:08:15.686Z,23.90
2018-04-15T12:10:43.956Z,24.00
2018-04-15T12:13:12.246Z,23.90
2018-04-15T12:15:40.516Z,23.90
2018-04-15T12:18:08.820Z,23.80
2018-04-15T12:20:37.083Z,24.00
2018-04-15T12:23:05.469Z,24.10
2018-04-15T12:25:33.711Z,24.50
2018-04-15T12:28:02.039Z,24.60
2018-04-15T12:30:31.123Z,25.10
2018-04-15T12:32:59.428Z,25.10
2018-04-15T12:35:28.447Z,25.40
2018-04-15T12:37:56.740Z,25.30
2018-04-15T12:40:25.127Z,25.60
2018-04-15T12:42:53.406Z,25.50
2018-04-15T12:45:21.671Z,25.60
2018-04-15T12:47:49.968Z,25.80
2018-04-15T12:50:18.238Z,26.00
2018-04-15T12:52:46.527Z,26.20
2018-04-15T12:55:14.782Z,26.50
2018-04-15T12:57:43.075Z,26.70
2018-04-15T13:00:11.325Z,26.60
2018-04-15T13:02:39.618Z,27.50
2018-04-15T13:05:07.927Z,28.40
2018-04-15T13:07:36.311Z,28.60
2018-04-15T13:10:04.569Z,28.40
2018-04-15T13:12:32.839Z,28.60
2018-04-15T13:15:01.163Z,29.60
2018-04-15T13:17:29.425Z,29.90
2018-04-15T13:19:58.443Z,30.60
2018-04-15T13:22:27.486Z,31.10
2018-04-15T13:24:55.754Z,31.10
2018-04-15T13:27:24.063Z,30.90
2018-04-15T13:29:52.371Z,31.50
2018-04-15T13:32:21.444Z,31.60
2018-04-15T13:34:49.735Z,31.60
2018-04-15T13:37:18.801Z,31.00
2018-04-15T13:39:47.093Z,30.90
2018-04-15T13:42:15.447Z,31.10
2018-04-15T13:44:43.836Z,31.10
2018-04-15T13:47:12.109Z,32.20
2018-04-15T13:49:40.495Z,33.30
2018-04-15T13:52:08.750Z,33.50
2018-04-15T13:54:37.043Z,33.60
2018-04-15T13:57:05.295Z,32.90
2018-04-15T13:59:33.602Z,32.60
2018-04-15T14:02:01.864Z,32.00
2018-04-15T14:04:30.159Z,30.80
2018-04-15T14:06:58.537Z,30.50
2018-04-15T14:09:26.812Z,30.10
2018-04-15T14:11:55.090Z,29.30
2018-04-15T14:14:23.379Z,29.10
2018-04-15T14:16:52.459Z,30.10
2018-04-15T14:19:20.779Z,30.10
2018-04-15T14:21:49.812Z,29.90
2018-04-15T14:24:18.217Z,29.90
2018-04-15T14:26:46.463Z,30.10
2018-04-15T14:29:14.965Z,30.60
2018-04-15T14:31:43.220Z,31.30
2018-04-15T14:34:11.508Z,30.10
2018-04-15T14:36:39.806Z,29.70
2018-04-15T14:39:08.114Z,29.40
2018-04-15T14:41:36.381Z,29.40
2018-04-15T14:44:04.669Z,28.80
2018-04-15T14:46:32.913Z,28.30
2018-04-15T14:49:01.188Z,28.30
2018-04-15T14:51:29.572Z,28.30
2018-04-15T14:53:57.829Z,29.10
2018-04-15T14:56:26.109Z,30.00
2018-04-15T14:58:54.432Z,31.10
2018-04-15T15:01:22.885Z,30.80
2018-04-15T15:03:51.266Z,31.00
2018-04-15T15:06:19.646Z,30.60
2018-04-15T15:08:47.895Z,30.10
2018-04-15T15:11:17.168Z,30.00
2018-04-15T15:13:46.223Z,28.80
2018-04-15T15:16:14.516Z,28.80
2018-04-15T15:18:42.884Z,28.50
2018-04-15T15:21:12.674Z,29.10
2018-04-15T15:23:40.936Z,29.00
2018-04-15T15:26:09.343Z,30.10
2018-04-15T15:28:37.619Z,30.40
2018-04-15T15:31:05.899Z,30.90
2018-04-15T15:33:34.185Z,31.30
2018-04-15T15:36:02.453Z,31.30
2018-04-15T15:38:30.739Z,31.00
2018-04-15T15:40:59.023Z,31.20
2018-04-15T15:43:27.393Z,31.20
2018-04-15T15:45:55.707Z,31.50
2018-04-15T15:48:24.736Z,30.60
2018-04-15T15:50:53.019Z,30.60
2018-04-15T15:53:21.287Z,29.80
2018-04-15T15:55:49.577Z,29.80
2018-04-15T15:58:17.872Z,29.90
2018-04-15T16:00:46.170Z,30.70
2018-04-15T16:03:14.433Z,30.90
2018-04-15T16:05:42.716Z,30.50
2018-04-15T16:08:11.077Z,30.60
2018-04-15T16:10:39.351Z,30.40
2018-04-15T16:13:07.622Z,30.00
2018-04-15T16:15:36.013Z,29.60
2018-04-15T16:18:04.260Z,29.50
2018-04-15T16:20:33.356Z,29.00
2018-04-15T16:23:01.647Z,28.70
2018-04-15T16:25:29.912Z,28.50
2018-04-15T16:27:58.213Z,28.20
2018-04-15T16:30:26.483Z,27.90
2018-04-15T16:32:54.769Z,27.80
2018-04-15T16:35:23.048Z,28.00
2018-04-15T16:37:51.432Z,28.00
2018-04-15T16:40:19.700Z,27.70
2018-04-15T16:42:47.985Z,27.00
2018-04-15T16:45:16.248Z,26.90
2018-04-15T16:47:44.602Z,26.80
2018-04-15T16:50:12.798Z,27.30
2018-04-15T16:52:41.202Z,27.20
2018-04-15T16:55:09.575Z,27.20
2018-04-15T16:57:37.877Z,27.30
2018-04-15T17:00:07.686Z,27.30
2018-04-15T17:02:35.943Z,27.30
2018-04-15T17:05:04.212Z,27.00
2018-04-15T17:07:32.511Z,26.60
2018-04-15T17:10:00.772Z,26.40
2018-04-15T17:12:29.067Z,26.10
2018-04-15T17:14:57.329Z,25.60
2018-04-15T17:17:25.612Z,25.30
2018-04-15T17:19:53.893Z,24.90
2018-04-15T17:22:22.195Z,24.80
2018-04-15T17:24:51.253Z,23.80
2018-04-15T17:27:19.551Z,23.70
2018-04-15T17:29:48.599Z,23.60
2018-04-15T17:32:16.901Z,23.50
2018-04-15T17:34:45.210Z,23.50
2018-04-15T17:37:14.280Z,23.30
2018-04-15T17:39:42.567Z,23.20
2018-04-15T17:42:12.351Z,23.10
2018-04-15T17:44:40.641Z,23.10
2018-04-15T17:47:08.919Z,23.10
2018-04-15T17:49:37.191Z,23.00
2018-04-15T17:52:05.520Z,23.10
2018-04-15T17:54:34.569Z,23.10
2018-04-15T17:57:02.950Z,23.00
2018-04-15T17:59:31.334Z,22.80
2018-04-15T18:01:59.596Z,22.60
2018-04-15T18:04:28.007Z,22.30
2018-04-15T18:06:56.278Z,22.10
2018-04-15T18:09:24.579Z,21.90
2018-04-15T18:11:53.613Z,21.60
2018-04-15T18:14:21.908Z,21.60
2018-04-15T18:16:50.165Z,21.50
2018-04-15T18:19:18.468Z,21.40
2018-04-15T18:21:47.545Z,21.30
2018-04-15T18:24:16.147Z,21.10
2018-04-15T18:26:44.395Z,21.00
2018-04-15T18:29:12.728Z,20.90
2018-04-15T18:31:40.954Z,20.80
2018-04-15T18:34:09.244Z,20.70
2018-04-15T18:36:37.498Z,20.50
2018-04-15T18:39:05.894Z,20.50
2018-04-15T18:41:34.212Z,20.40
2018-04-15T18:44:02.483Z,20.30
2018-04-15T18:46:30.749Z,20.10
2018-04-15T18:48:59.118Z,20.10
2018-04-15T18:51:27.513Z,20.00
2018-04-15T18:53:55.935Z,19.90
2018-04-15T18:56:24.958Z,19.70
2018-04-15T18:58:53.363Z,19.70
2018-04-15T19:01:21.607Z,19.70
2018-04-15T19:03:50.019Z,19.60
2018-04-15T19:06:18.262Z,19.60
2018-04-15T19:08:46.552Z,19.50
2018-04-15T19:11:14.808Z,19.40
2018-04-15T19:13:43.063Z,19.40
2018-04-15T19:16:12.123Z,19.20
2018-04-15T19:18:40.403Z,19.20
2018-04-15T19:21:08.880Z,19.20
2018-04-15T19:23:37.127Z,19.10
2018-04-15T19:26:05.419Z,19.00
2018-04-15T19:28:33.693Z,18.90
2018-04-15T19:31:02.108Z,18.90
2018-04-15T19:33:30.414Z,18.90
2018-04-15T19:35:59.492Z,18.80
2018-04-15T19:38:27.756Z,18.80
2018-04-15T19:40:56.126Z,18.80
2018-04-15T19:43:24.436Z,18.80
2018-04-15T19:45:52.788Z,18.80
2018-04-15T19:48:21.048Z,18.70
2018-04-15T19:50:49.363Z,18.70
2018-04-15T19:53:18.424Z,18.60
2018-04-15T19:55:46.707Z,18.60
2018-04-15T19:58:14.970Z,18.60
2018-04-15T20:00:43.366Z,18.60
2018-04-15T20:03:11.751Z,18.60
2018-04-15T20:05:40.034Z,18.50
2018-04-15T20:08:08.287Z,18.40
2018-04-15T20:10:36.680Z,18.20
2018-04-15T20:13:04.951Z,17.90
2018-04-15T20:15:33.236Z,17.70
2018-04-15T20:18:01.538Z,17.50
2018-04-15T20:20:29.821Z,17.40
2018-04-15T20:22:58.860Z,17.20
2018-04-15T20:25:27.146Z,17.20
2018-04-15T20:27:55.411Z,17.10
2018-04-15T20:30:23.708Z,17.00
2018-04-15T20:32:52.094Z,17.00
2018-04-15T20:35:20.332Z,16.90
2018-04-15T20:37:48.652Z,16.80
2018-04-15T20:40:16.943Z,16.70
2018-04-15T20:42:45.244Z,16.60
2018-04-15T20:45:14.266Z,16.40
2018-04-15T20:47:42.576Z,16.40
2018-04-15T20:50:10.828Z,16.40
2018-04-15T20:52:39.115Z,16.20
2018-04-15T20:55:07.391Z,16.20
2018-04-15T20:57:35.692Z,16.00
2018-04-15T21:00:04.064Z,15.90
2018-04-15T21:02:32.549Z,15.80
2018-04-15T21:05:00.823Z,15.70
2018-04-15T21:07:29.097Z,15.70
2018-04-15T21:09:57.349Z,15.60
2018-04-15T21:12:26.595Z,15.60
2018-04-15T21:14:54.847Z,15.60
2018-04-15T21:17:23.335Z,15.40
2018-04-15T21:19:51.631Z,15.30
2018-04-15T21:22:19.901Z,15.20
2018-04-15T21:24:48.263Z,15.20
2018-04-15T21:27:16.575Z,15.10
2018-04-15T21:29:44.835Z,15.10
2018-04-15T21:32:13.136Z,15.00
2018-04-15T21:34:42.300Z,15.00
2018-04-15T21:37:10.580Z,15.00
2018-04-15T21:39:38.853Z,15.00
2018-04-15T21:42:07.149Z,15.10
2018-04-15T21:44:35.425Z,15.00
2018-04-15T21:47:03.686Z,14.90
2018-04-15T21:49:31.984Z,14.90
2018-04-15T21:52:00.448Z,14.90
2018-04-15T21:54:28.740Z,14.80
2018-04-15T21:56:57.013Z,14.70
2018-04-15T21:59:25.339Z,14.80
2018-04-15T22:01:54.358Z,14.90
2018-04-15T22:04:22.744Z,14.90
2018-04-15T22:06:51.015Z,14.90
2018-04-15T22:09:19.317Z,14.90
2018-04-15T22:11:59.455Z,14.80
2018-04-15T22:14:27.751Z,14.80
2018-04-15T22:16:56.021Z,14.60
2018-04-15T22:19:24.324Z,14.50
2018-04-15T22:21:53.346Z,14.60
2018-04-15T22:24:21.643Z,14.60
2018-04-15T22:26:49.915Z,14.50
2018-04-15T22:29:18.219Z,14.50
2018-04-15T22:31:46.469Z,14.40
2018-04-15T22:34:14.776Z,14.40
2018-04-15T22:36:43.046Z,14.40
2018-04-15T22:39:11.533Z,14.40
2018-04-15T22:41:39.810Z,14.20
2018-04-15T22:44:08.090Z,14.10
2018-04-15T22:46:36.359Z,14.10
2018-04-15T22:49:10.636Z,14.00
2018-04-15T22:51:38.955Z,13.90
2018-04-15T22:54:07.256Z,13.80
2018-04-15T22:56:41.947Z,13.80
2018-04-15T22:59:10.241Z,13.80
2018-04-15T23:01:38.502Z,13.80
2018-04-15T23:04:06.900Z,13.80
2018-04-15T23:06:35.161Z,13.90
2018-04-15T23:09:03.556Z,14.00
2018-04-15T23:11:31.823Z,14.00
2018-04-15T23:14:00.087Z,13.90
2018-04-15T23:16:28.490Z,13.80
2018-04-15T23:18:56.757Z,13.70
2018-04-15T23:21:25.043Z,13.80
2018-04-15T23:23:53.312Z,13.70
2018-04-15T23:26:21.612Z,13.70
2018-04-15T23:28:49.878Z,13.60
2018-04-15T23:31:18.167Z,13.50
2018-04-15T23:33:46.539Z,13.50
2018-04-15T23:36:14.823Z,13.50
2018-04-15T23:38:43.099Z,13.60
2018-04-15T23:41:11.371Z,13.60
2018-04-15T23:43:39.643Z,13.60
2018-04-15T23:46:07.931Z,13.50
2018-04-15T23:48:36.211Z,13.50
2018-04-15T23:51:04.511Z,13.40
2018-04-15T23:53:33.543Z,13.30
2018-04-15T23:56:01.856Z,13.20
2018-04-15T23:58:30.124Z,13.20
